Time;durP1;ratioP1;P1;durP2;ratioP2;P2;SDS_P1;SDS_P2;PMS_P1;PMS_P2;Temp;Humidity;BMP_temperature;BMP_pressure;BME280_temperature;BME280_humidity;BME280_pressure;Samples;Min_cycle;Max_cycle;Signal;HPM_P1;HPM_P2
2022/01/26 00:07:51;;;;;;;53.33;19.83;;;5.10;1.00;;;;;;5067687;28;20413;-58
2022/01/26 00:10:17;;;;;;;39.83;19.90;;;;;;;;;;5067467;28;20452;-58
2022/01/26 00:12:42;;;;;;;40.50;20.13;;;5.20;1.00;;;;;;5066721;28;20482;-57
2022/01/26 00:15:09;;;;;;;39.23;18.67;;;5.20;1.00;;;;;;5068493;28;20455;-57
2022/01/26 00:17:35;;;;;;;37.27;18.20;;;5.30;1.00;;;;;;5064541;28;20260;-58
2022/01/26 00:20:27;;;;;;;38.23;19.43;;;;;;;;;;5067664;28;20522;-58
2022/01/26 00:28:08;;;;;;;48.93;20.60;;;5.20;1.00;;;;;;5067888;28;20307;-58
2022/01/26 00:41:04;;;;;;;34.47;16.40;;;5.30;1.00;;;;;;5061333;28;20874;-58
2022/01/26 00:43:30;;;;;;;34.03;16.90;;;5.20;1.00;;;;;;5065468;28;20533;-57
2022/01/26 00:45:57;;;;;;;35.70;18.60;;;5.20;1.00;;;;;;5064999;28;20448;-56
2022/01/26 00:48:25;;;;;;;35.53;16.50;;;5.40;1.00;;;;;;5067745;28;20489;-58
2022/01/26 00:50:52;;;;;;;34.23;17.80;;;5.40;1.00;;;;;;5066026;28;20499;-56
2022/01/26 00:53:28;;;;;;;34.97;18.40;;;5.20;1.00;;;;;;5066342;28;20447;-58
2022/01/26 00:55:54;;;;;;;32.63;16.93;;;5.30;1.00;;;;;;5066215;28;20493;-58
2022/01/26 00:58:20;;;;;;;40.23;18.83;;;5.40;1.00;;;;;;5067067;28;20950;-57
2022/01/26 01:00:46;;;;;;;37.03;16.87;;;5.30;1.00;;;;;;5063762;28;20456;-59
2022/01/26 01:03:11;;;;;;;33.63;17.40;;;;;;;;;;5067678;28;20521;-57
2022/01/26 01:05:45;;;;;;;31.50;15.70;;;5.40;1.00;;;;;;5066042;28;20249;-57
2022/01/26 01:08:15;;;;;;;34.00;16.37;;;5.40;1.00;;;;;;5066863;28;20452;-57
2022/01/26 01:10:45;;;;;;;30.00;15.90;;;5.40;1.00;;;;;;5063440;28;20447;-58
2022/01/26 01:13:15;;;;;;;35.20;16.67;;;5.40;1.00;;;;;;5066745;28;20481;-57
2022/01/26 01:15:42;;;;;;;33.13;17.90;;;5.40;1.00;;;;;;5071460;28;20796;-57
2022/01/26 01:18:14;;;;;;;29.30;15.33;;;5.30;1.00;;;;;;5067156;28;20444;-57
2022/01/26 01:30:48;;;;;;;33.27;18.13;;;5.40;1.00;;;;;;5063059;28;20539;-57
2022/01/26 01:33:23;;;;;;;29.97;16.27;;;5.50;1.00;;;;;;5050279;28;20485;-56
2022/01/26 01:35:49;;;;;;;30.50;16.23;;;5.50;1.00;;;;;;5086738;28;20552;-58
2022/01/26 01:38:18;;;;;;;29.50;14.10;;;;;;;;;;5062264;28;20863;-57
2022/01/26 01:40:49;;;;;;;28.67;15.20;;;5.40;1.00;;;;;;5068482;28;20856;-58
2022/01/26 01:43:16;;;;;;;29.27;16.20;;;5.40;1.00;;;;;;5069606;28;20542;-58
2022/01/26 01:45:47;;;;;;;29.30;14.63;;;5.30;1.00;;;;;;5051694;28;20482;-58
2022/01/26 01:48:18;;;;;;;32.63;14.90;;;5.20;1.00;;;;;;5069754;28;20961;-60
2022/01/26 01:50:43;;;;;;;26.60;14.10;;;5.30;1.00;;;;;;5071469;28;21001;-56
2022/01/26 01:53:10;;;;;;;27.07;14.60;;;5.50;1.00;;;;;;5069749;28;20482;-58
2022/01/26 01:55:41;;;;;;;24.67;14.53;;;5.10;1.00;;;;;;5068706;28;20788;-58
2022/01/26 01:58:08;;;;;;;27.20;13.60;;;4.80;1.00;;;;;;5069771;28;20447;-58
2022/01/26 02:00:35;;;;;;;29.17;14.53;;;5.10;1.00;;;;;;5068192;28;21010;-58
2022/01/26 02:03:01;;;;;;;28.73;13.53;;;5.10;1.00;;;;;;5058981;28;20456;-57
2022/01/26 02:05:27;;;;;;;31.17;15.40;;;5.00;1.00;;;;;;5070143;28;20451;-57
2022/01/26 02:07:53;;;;;;;25.83;13.90;;;6.40;1.00;;;;;;5068171;28;20604;-58
2022/01/26 02:10:21;;;;;;;30.57;16.43;;;5.00;1.00;;;;;;5068832;28;20988;-57
2022/01/26 02:12:59;;;;;;;36.87;16.43;;;5.10;1.00;;;;;;5070995;28;20469;-57
2022/01/26 02:15:37;;;;;;;25.20;13.20;;;5.10;1.00;;;;;;5066932;28;20459;-57
2022/01/26 02:18:25;;;;;;;27.83;16.00;;;5.20;1.00;;;;;;5070096;28;20521;-58
2022/01/26 02:53:49;;;;;;;30.03;16.57;;;4.90;1.00;;;;;;5069046;28;20491;-59
2022/01/26 02:59:25;;;;;;;26.40;13.23;;;4.80;1.00;;;;;;5065619;28;21037;-58
2022/01/26 03:02:00;;;;;;;23.10;13.40;;;4.80;1.00;;;;;;5067961;28;20449;-58
2022/01/26 03:07:05;;;;;;;28.33;15.07;;;5.00;1.00;;;;;;5067026;28;21033;-57
2022/01/26 03:09:42;;;;;;;27.90;15.23;;;5.00;1.00;;;;;;5067849;28;20515;-58
2022/01/26 03:12:10;;;;;;;29.80;15.93;;;5.20;1.00;;;;;;5065485;28;20777;-57
2022/01/26 03:17:26;;;;;;;23.80;12.73;;;;;;;;;;5072079;28;20506;-58
2022/01/26 03:19:51;;;;;;;25.43;13.80;;;;;;;;;;5066132;28;20194;-58
2022/01/26 03:35:18;;;;;;;24.23;15.20;;;5.00;1.00;;;;;;5073515;28;20787;-58
2022/01/26 03:37:55;;;;;;;21.30;12.53;;;5.00;1.00;;;;;;5066365;28;20442;-57
2022/01/26 03:40:30;;;;;;;23.73;13.83;;;5.00;1.00;;;;;;5062571;28;20478;-56
2022/01/26 03:42:56;;;;;;;26.07;13.60;;;4.90;1.00;;;;;;5061001;28;20980;-58
2022/01/26 03:45:22;;;;;;;23.60;13.13;;;5.00;1.00;;;;;;5065537;28;21183;-57
2022/01/26 03:47:47;;;;;;;20.40;12.20;;;5.00;1.00;;;;;;5064737;28;20470;-56
2022/01/26 03:50:13;;;;;;;22.47;13.97;;;5.10;1.00;;;;;;5066562;28;20783;-58
2022/01/26 03:52:38;;;;;;;25.50;14.23;;;5.10;1.00;;;;;;5089530;28;20203;-57
2022/01/26 03:55:04;;;;;;;25.00;13.83;;;5.00;1.00;;;;;;5064383;28;20202;-58
2022/01/26 03:57:30;;;;;;;18.93;12.87;;;5.20;1.00;;;;;;5087016;28;20269;-57
2022/01/26 03:59:56;;;;;;;23.67;14.80;;;5.00;1.00;;;;;;5062617;28;20932;-57
2022/01/26 04:02:22;;;;;;;22.70;12.20;;;;;;;;;;5066300;28;20181;-59
2022/01/26 04:04:57;;;;;;;22.83;14.53;;;5.00;1.00;;;;;;5065087;28;20193;-57
2022/01/26 04:07:23;;;;;;;21.20;12.17;;;5.00;1.00;;;;;;5062116;28;20437;-56
2022/01/26 04:09:48;;;;;;;20.27;11.97;;;5.10;1.00;;;;;;5063585;28;20438;-56
2022/01/26 04:12:14;;;;;;;23.63;13.50;;;5.20;1.00;;;;;;5061822;28;20219;-58
2022/01/26 04:14:42;;;;;;;27.27;14.00;;;5.10;1.00;;;;;;5063894;28;20192;-56
2022/01/26 04:17:08;;;;;;;19.93;12.97;;;5.10;1.00;;;;;;5066182;28;20217;-58
2022/01/26 04:19:36;;;;;;;21.17;13.93;;;5.10;1.00;;;;;;5066080;28;20460;-57
2022/01/26 04:22:19;;;;;;;19.67;11.80;;;5.10;1.00;;;;;;5064620;28;20931;-56
2022/01/26 04:24:50;;;;;;;20.20;12.63;;;5.00;1.00;;;;;;5090158;28;20472;-57
2022/01/26 04:27:22;;;;;;;22.77;12.50;;;5.10;1.00;;;;;;5062867;28;20466;-58
2022/01/26 04:29:49;;;;;;;20.50;11.60;;;5.10;1.00;;;;;;5066287;28;22092;-57
2022/01/26 04:32:16;;;;;;;21.30;12.37;;;5.10;1.00;;;;;;5063770;28;21001;-58
2022/01/26 04:34:43;;;;;;;18.10;10.83;;;;;;;;;;5066134;28;20607;-56
2022/01/26 04:40:07;;;;;;;21.03;11.83;;;4.90;1.00;;;;;;5061220;28;20457;-58
2022/01/26 04:42:50;;;;;;;21.13;13.07;;;;;;;;;;5065667;28;20478;-56
2022/01/26 04:45:15;;;;;;;17.00;11.17;;;5.10;1.00;;;;;;5065568;28;20518;-58
2022/01/26 04:47:41;;;;;;;20.20;11.00;;;5.00;1.00;;;;;;5047075;28;20633;-59
2022/01/26 04:50:08;;;;;;;20.77;13.13;;;4.90;1.00;;;;;;5068561;28;20203;-58
2022/01/26 04:52:34;;;;;;;21.30;13.27;;;4.90;1.00;;;;;;5066470;28;20707;-56
2022/01/26 04:55:00;;;;;;;15.33;9.93;;;4.90;1.00;;;;;;5054125;28;20442;-58
2022/01/26 04:57:25;;;;;;;18.73;11.30;;;4.90;1.00;;;;;;5055210;28;20172;-57
2022/01/26 04:59:51;;;;;;;19.27;12.07;;;4.90;1.00;;;;;;5056253;28;20644;-57
2022/01/26 05:02:17;;;;;;;18.90;12.90;;;4.90;1.00;;;;;;5056682;28;20242;-57
2022/01/26 05:04:42;;;;;;;19.60;12.00;;;5.00;1.00;;;;;;5051226;28;20290;-56
2022/01/26 05:07:08;;;;;;;19.93;12.40;;;4.90;1.00;;;;;;5054471;28;21076;-55
2022/01/26 05:09:34;;;;;;;17.00;11.30;;;5.00;1.00;;;;;;5079525;28;20302;-58
2022/01/26 05:12:01;;;;;;;23.47;12.67;;;5.00;1.00;;;;;;5070003;28;20736;-57
2022/01/26 05:14:27;;;;;;;21.50;11.37;;;5.00;1.00;;;;;;5071747;28;20181;-57
2022/01/26 05:16:52;;;;;;;21.90;12.20;;;5.00;1.00;;;;;;5069227;28;20415;-59
2022/01/26 05:19:18;;;;;;;19.60;11.50;;;;;;;;;;5070531;28;20190;-58
2022/01/26 05:21:45;;;;;;;18.70;12.10;;;5.20;1.00;;;;;;5069649;28;20191;-58
2022/01/26 05:24:11;;;;;;;21.43;13.90;;;5.20;1.00;;;;;;5071121;28;20427;-59
2022/01/26 05:26:38;;;;;;;25.13;13.33;;;5.20;1.00;;;;;;5064449;28;21081;-59
2022/01/26 05:29:05;;;;;;;20.70;12.43;;;5.20;1.00;;;;;;5071867;28;20437;-59
2022/01/26 05:31:31;;;;;;;23.50;14.00;;;5.10;1.00;;;;;;5057240;28;20784;-58
2022/01/26 05:33:57;;;;;;;24.87;14.53;;;5.10;1.00;;;;;;5069792;28;20449;-58
2022/01/26 05:36:23;;;;;;;23.00;13.57;;;5.20;1.00;;;;;;5052385;28;20176;-57
2022/01/26 05:38:48;;;;;;;24.90;14.20;;;5.20;1.00;;;;;;5071882;28;20430;-60
2022/01/26 05:41:14;;;;;;;26.70;13.97;;;5.20;1.00;;;;;;5077265;28;20642;-57
2022/01/26 05:43:40;;;;;;;21.10;12.87;;;5.10;1.00;;;;;;5073613;28;20533;-59
2022/01/26 05:46:11;;;;;;;20.40;12.90;;;5.10;1.00;;;;;;5069469;28;20446;-57
2022/01/26 05:48:43;;;;;;;23.73;14.03;;;5.00;1.00;;;;;;5050742;28;20180;-58
2022/01/26 05:51:10;;;;;;;24.53;13.80;;;5.00;1.00;;;;;;5070312;28;20454;-58
2022/01/26 05:53:37;;;;;;;19.33;12.90;;;4.90;1.00;;;;;;5068505;28;20528;-58
2022/01/26 05:56:03;;;;;;;25.23;13.67;;;4.80;1.00;;;;;;5056014;28;20412;-59
2022/01/26 05:58:29;;;;;;;24.93;14.27;;;4.70;1.00;;;;;;5070549;28;20525;-58
2022/01/26 06:00:58;;;;;;;22.20;12.70;;;4.70;1.00;;;;;;5067207;28;20451;-58
2022/01/26 06:03:24;;;;;;;21.03;13.57;;;4.80;1.00;;;;;;5073004;28;20954;-59
2022/01/26 06:05:49;;;;;;;22.00;13.53;;;4.80;1.00;;;;;;5069507;28;20417;-59
2022/01/26 06:08:15;;;;;;;20.43;13.00;;;4.70;1.00;;;;;;5068661;28;20199;-59
2022/01/26 06:10:40;;;;;;;21.73;13.33;;;4.70;1.00;;;;;;5071183;28;20219;-59
2022/01/26 06:13:06;;;;;;;23.20;13.30;;;4.70;1.00;;;;;;5077125;28;20208;-59
2022/01/26 06:15:32;;;;;;;25.57;14.73;;;4.70;1.00;;;;;;5069338;28;20183;-58
2022/01/26 06:17:57;;;;;;;24.67;13.90;;;4.80;1.00;;;;;;5071532;28;20207;-59
2022/01/26 06:20:23;;;;;;;20.90;13.50;;;4.80;1.00;;;;;;5073646;28;20217;-58
2022/01/26 06:22:48;;;;;;;22.57;14.13;;;4.80;1.00;;;;;;5072753;28;20188;-59
2022/01/26 06:25:15;;;;;;;21.83;13.93;;;4.70;1.00;;;;;;5070868;28;20213;-59
2022/01/26 06:27:43;;;;;;;20.20;12.50;;;4.70;1.00;;;;;;5070728;28;20760;-59
2022/01/26 06:30:09;;;;;;;19.73;12.73;;;4.60;1.00;;;;;;5070371;28;20451;-58
2022/01/26 06:32:37;;;;;;;19.17;11.50;;;4.70;1.00;;;;;;5072565;28;20462;-58
2022/01/26 06:35:03;;;;;;;22.17;13.97;;;4.70;1.00;;;;;;5053366;28;20441;-59
2022/01/26 06:37:29;;;;;;;20.83;13.33;;;4.70;1.00;;;;;;5071165;28;20416;-59
2022/01/26 06:39:54;;;;;;;22.00;13.37;;;4.70;1.00;;;;;;5076892;28;20764;-59
2022/01/26 06:42:25;;;;;;;19.00;13.90;;;4.70;1.00;;;;;;5081452;28;20188;-59
2022/01/26 06:45:06;;;;;;;22.43;13.50;;;4.70;1.00;;;;;;5069470;28;20248;-60
2022/01/26 06:47:48;;;;;;;23.03;14.40;;;4.80;1.00;;;;;;5077487;28;20407;-58
2022/01/26 06:50:14;;;;;;;21.47;13.73;;;4.70;1.00;;;;;;5067026;28;20938;-57
2022/01/26 06:52:43;;;;;;;22.67;12.57;;;4.60;1.00;;;;;;5071265;28;20520;-59
2022/01/26 06:55:09;;;;;;;20.50;14.23;;;4.60;1.00;;;;;;5071522;28;20241;-59
2022/01/26 06:57:35;;;;;;;22.00;13.23;;;;;;;;;;5067603;28;20795;-59
2022/01/26 07:00:01;;;;;;;20.80;14.00;;;4.80;1.00;;;;;;5071123;28;20417;-59
2022/01/26 07:02:26;;;;;;;23.00;15.30;;;4.70;1.00;;;;;;5065459;28;20420;-59
2022/01/26 07:04:52;;;;;;;23.23;13.90;;;4.80;1.00;;;;;;5069925;28;20192;-59
2022/01/26 07:07:17;;;;;;;22.70;13.83;;;4.80;1.00;;;;;;5069938;28;20188;-59
2022/01/26 07:09:43;;;;;;;23.83;13.33;;;4.80;1.00;;;;;;5070135;28;20237;-59
2022/01/26 07:12:08;;;;;;;22.20;14.30;;;4.80;1.00;;;;;;5069041;28;20207;-59
2022/01/26 07:22:40;;;;;;;24.00;13.83;;;4.80;1.00;;;;;;5070059;28;20499;-58
2022/01/26 07:25:06;;;;;;;22.33;14.70;;;5.00;1.00;;;;;;5070178;28;20449;-59
2022/01/26 07:27:32;;;;;;;23.40;14.63;;;4.90;1.00;;;;;;5069165;28;20253;-58
2022/01/26 07:29:59;;;;;;;22.37;13.23;;;4.90;1.00;;;;;;5068189;28;20180;-58
2022/01/26 07:32:26;;;;;;;28.40;13.83;;;4.80;1.00;;;;;;5068388;28;20195;-60
2022/01/26 07:34:52;;;;;;;24.00;15.27;;;5.00;1.00;;;;;;5070403;28;20875;-59
2022/01/26 07:37:20;;;;;;;23.57;14.00;;;5.10;1.00;;;;;;5069990;28;20470;-58
2022/01/26 07:39:59;;;;;;;19.70;13.30;;;5.10;1.00;;;;;;5069799;28;20187;-59
2022/01/26 07:42:25;;;;;;;21.97;13.20;;;5.00;1.00;;;;;;5071048;28;20419;-58
2022/01/26 07:44:50;;;;;;;28.40;14.97;;;5.00;1.00;;;;;;5068907;28;20799;-59
2022/01/26 07:47:16;;;;;;;25.90;14.73;;;5.10;1.00;;;;;;5079592;28;20192;-59
2022/01/26 07:49:42;;;;;;;24.57;14.87;;;5.10;1.00;;;;;;5069702;28;20193;-59
2022/01/26 07:52:08;;;;;;;21.93;13.77;;;5.00;1.00;;;;;;5069307;28;20230;-60
2022/01/26 07:54:33;;;;;;;28.70;15.50;;;5.00;1.00;;;;;;5069511;28;20187;-59
2022/01/26 07:57:01;;;;;;;21.03;12.90;;;;;;;;;;5065078;28;20187;-58
2022/01/26 07:59:27;;;;;;;23.10;13.57;;;5.20;1.00;;;;;;5067575;28;20179;-59
2022/01/26 08:01:52;;;;;;;20.70;12.90;;;5.00;1.00;;;;;;5068106;28;20494;-57
2022/01/26 08:04:18;;;;;;;21.43;11.43;;;4.90;1.00;;;;;;5070046;28;20527;-59
2022/01/26 08:06:44;;;;;;;23.67;14.10;;;5.00;1.00;;;;;;5070576;28;20191;-59
2022/01/26 08:09:17;;;;;;;19.40;11.53;;;5.10;1.00;;;;;;5105112;28;20228;-59
2022/01/26 08:11:42;;;;;;;18.63;10.10;;;5.10;1.00;;;;;;5090466;28;20523;-59
2022/01/26 08:14:09;;;;;;;19.80;11.80;;;;;;;;;;5090502;28;20464;-60
2022/01/26 08:16:34;;;;;;;17.60;11.73;;;5.20;1.00;;;;;;5090491;28;20462;-59
2022/01/26 08:19:00;;;;;;;23.73;13.17;;;5.20;1.00;;;;;;5089899;28;20908;-59
2022/01/26 08:21:26;;;;;;;23.10;13.60;;;5.20;1.00;;;;;;5051697;28;21465;-59
2022/01/26 08:23:51;;;;;;;20.67;12.20;;;5.30;1.00;;;;;;5070143;28;20171;-58
2022/01/26 08:26:24;;;;;;;21.00;11.83;;;5.10;1.00;;;;;;5069994;28;20273;-59
2022/01/26 08:28:55;;;;;;;19.40;11.63;;;5.10;1.00;;;;;;5070241;28;20724;-59
2022/01/26 08:31:20;;;;;;;15.70;10.67;;;5.20;1.00;;;;;;5069890;28;21017;-59
2022/01/26 08:33:46;;;;;;;16.50;10.70;;;5.20;1.00;;;;;;5070274;28;20443;-58
2022/01/26 08:36:12;;;;;;;16.80;10.30;;;5.30;1.00;;;;;;5080126;28;20221;-59
2022/01/26 08:38:37;;;;;;;16.60;10.40;;;5.20;1.00;;;;;;5088044;28;20178;-58
2022/01/26 08:41:03;;;;;;;14.90;9.13;;;5.10;1.00;;;;;;5074392;28;20177;-59
2022/01/26 08:43:29;;;;;;;12.87;7.93;;;5.10;1.00;;;;;;5061803;28;20241;-59
2022/01/26 08:45:54;;;;;;;14.90;8.20;;;5.20;1.00;;;;;;5078649;28;20187;-59
2022/01/26 08:48:21;;;;;;;14.10;9.60;;;5.20;1.00;;;;;;5071324;28;20184;-58
2022/01/26 08:50:47;;;;;;;16.00;9.20;;;5.00;1.00;;;;;;5069267;28;20635;-59
2022/01/26 08:53:13;;;;;;;14.43;8.47;;;5.00;1.00;;;;;;5079069;28;20552;-58
2022/01/26 08:55:39;;;;;;;13.70;9.07;;;;;;;;;;5081017;28;20192;-58
2022/01/26 08:58:05;;;;;;;16.20;9.60;;;4.90;1.00;;;;;;5073273;28;20188;-59
2022/01/26 09:00:31;;;;;;;16.27;10.50;;;;;;;;;;5089690;28;20912;-60
2022/01/26 09:02:57;;;;;;;17.63;9.60;;;4.80;1.00;;;;;;5071861;28;20440;-58
2022/01/26 09:05:23;;;;;;;22.77;10.60;;;4.70;1.00;;;;;;5089807;28;20758;-59
2022/01/26 09:07:50;;;;;;;16.80;9.17;;;4.60;1.00;;;;;;5069411;28;20441;-59
2022/01/26 09:10:16;;;;;;;18.30;11.23;;;4.70;1.00;;;;;;5052617;28;20657;-58
2022/01/26 09:12:44;;;;;;;19.30;10.90;;;4.70;1.00;;;;;;5069234;28;20558;-59
2022/01/26 09:15:11;;;;;;;17.40;10.30;;;4.60;1.00;;;;;;5069725;28;20413;-60
2022/01/26 09:17:38;;;;;;;17.33;10.47;;;;;;;;;;5068885;28;20445;-59
2022/01/26 09:20:06;;;;;;;20.43;11.27;;;4.60;1.00;;;;;;5069680;28;20622;-59
2022/01/26 09:22:32;;;;;;;16.77;10.53;;;4.60;1.00;;;;;;5078488;28;20446;-59
2022/01/26 09:24:57;;;;;;;17.13;10.63;;;4.60;1.00;;;;;;5077501;28;20918;-59
2022/01/26 09:27:23;;;;;;;22.20;11.60;;;4.60;1.00;;;;;;5069481;28;20231;-58
2022/01/26 09:29:49;;;;;;;17.17;10.30;;;4.50;1.00;;;;;;5071160;28;20228;-57
2022/01/26 09:32:15;;;;;;;21.30;12.13;;;;;;;;;;5058470;28;20770;-59
2022/01/26 09:34:41;;;;;;;16.97;10.53;;;4.50;1.00;;;;;;5069019;28;20188;-60
2022/01/26 09:37:11;;;;;;;20.03;11.50;;;4.50;1.00;;;;;;5068961;28;20476;-58
2022/01/26 09:39:38;;;;;;;14.27;10.10;;;4.30;1.00;;;;;;5069174;28;20480;-58
2022/01/26 09:42:05;;;;;;;18.77;11.90;;;4.70;1.00;;;;;;5056946;28;20441;-58
2022/01/26 09:44:31;;;;;;;16.57;9.93;;;4.50;1.00;;;;;;5069726;28;20433;-59
2022/01/26 09:46:57;;;;;;;16.43;10.53;;;4.60;1.00;;;;;;5085975;28;20450;-59
2022/01/26 09:49:29;;;;;;;20.00;11.23;;;4.70;1.00;;;;;;5078354;28;20436;-59
2022/01/26 09:51:59;;;;;;;18.60;11.43;;;4.70;1.00;;;;;;5096810;28;20473;-59
2022/01/26 09:54:30;;;;;;;18.20;10.47;;;4.70;1.00;;;;;;5089953;28;20432;-59
2022/01/26 09:57:01;;;;;;;21.73;11.53;;;4.60;1.00;;;;;;5079125;28;20863;-59
2022/01/26 09:59:26;;;;;;;19.13;11.10;;;4.70;1.00;;;;;;5086538;28;21039;-59
2022/01/26 10:01:52;;;;;;;18.43;11.70;;;;;;;;;;5093026;28;20418;-59
2022/01/26 10:04:28;;;;;;;16.17;11.07;;;4.70;1.00;;;;;;5074684;28;20187;-59
2022/01/26 10:08:01;;;;;;;18.87;11.80;;;4.70;1.00;;;;;;5079981;28;20447;-58
2022/01/26 10:10:31;;;;;;;21.00;12.07;;;4.70;1.00;;;;;;5057726;28;20453;-56
2022/01/26 10:15:43;;;;;;;12.27;9.07;;;4.70;1.00;;;;;;5076144;28;21042;-57
2022/01/26 10:18:16;;;;;;;19.33;9.60;;;4.70;1.00;;;;;;5079200;28;20491;-58
2022/01/26 10:20:48;;;;;;;16.10;9.50;;;4.60;1.00;;;;;;5071426;28;20455;-58
2022/01/26 10:23:18;;;;;;;13.87;8.60;;;4.50;1.00;;;;;;5089226;28;20440;-56
2022/01/26 10:25:47;;;;;;;16.00;9.47;;;4.60;1.00;;;;;;5092277;28;20438;-58
2022/01/26 10:28:16;;;;;;;16.33;9.10;;;4.70;1.00;;;;;;5085675;28;20441;-58
2022/01/26 10:30:47;;;;;;;15.03;9.13;;;4.70;1.00;;;;;;5077620;28;20444;-58
2022/01/26 10:33:15;;;;;;;13.00;8.23;;;4.50;1.00;;;;;;5074548;28;20436;-58
2022/01/26 10:35:41;;;;;;;10.77;8.17;;;;;;;;;;5080675;28;20445;-58
2022/01/26 10:38:06;;;;;;;14.33;8.70;;;4.50;1.00;;;;;;5092056;28;20429;-59
2022/01/26 10:40:32;;;;;;;12.90;7.80;;;4.60;1.00;;;;;;5080500;28;20445;-58
2022/01/26 10:43:09;;;;;;;13.30;9.07;;;4.60;1.00;;;;;;5072151;28;20226;-59
2022/01/26 12:45:24;;;;;;;13.80;8.10;;;4.50;1.00;;;;;;4968014;27;5656411;-58
2022/01/26 12:47:54;;;;;;;14.93;9.93;;;4.50;1.00;;;;;;5149283;27;20491;-59
2022/01/26 12:50:22;;;;;;;11.70;6.77;;;4.70;1.00;;;;;;5148616;27;20444;-59
2022/01/26 12:52:49;;;;;;;21.57;8.03;;;4.70;1.00;;;;;;5148747;27;20488;-59
2022/01/26 12:55:34;;;;;;;10.33;7.10;;;4.80;1.00;;;;;;5148128;27;20526;-59
2022/01/26 12:58:00;;;;;;;10.40;6.17;;;4.60;1.00;;;;;;5148450;27;20434;-58
2022/01/26 13:00:41;;;;;;;11.37;6.00;;;4.50;1.00;;;;;;5148622;27;20434;-58
2022/01/26 13:03:14;;;;;;;11.70;7.60;;;4.40;1.00;;;;;;5149180;27;20252;-58
2022/01/26 13:05:40;;;;;;;10.93;6.50;;;4.40;1.00;;;;;;5148745;27;20438;-59
2022/01/26 13:08:08;;;;;;;13.77;7.53;;;4.50;1.00;;;;;;5148311;27;20449;-58
2022/01/26 13:10:34;;;;;;;12.40;6.47;;;4.60;1.00;;;;;;5149076;27;20434;-58
2022/01/26 13:13:15;;;;;;;8.77;5.63;;;4.60;1.00;;;;;;5148248;27;20968;-58
2022/01/26 13:16:33;;;;;;;7.60;5.53;;;4.50;1.00;;;;;;5148260;27;20430;-57
2022/01/26 13:18:45;;;;;;;12.90;6.63;;;4.60;1.00;;;;;;5132276;27;20430;-59
2022/01/26 13:21:58;;;;;;;13.47;7.03;;;4.50;1.00;;;;;;5149868;27;20437;-59
2022/01/26 13:24:38;;;;;;;11.30;6.97;;;4.50;1.00;;;;;;5147121;27;20548;-58
2022/01/26 13:27:22;;;;;;;13.97;7.27;;;4.60;1.00;;;;;;5147721;27;20434;-57
2022/01/26 13:30:09;;;;;;;11.50;7.30;;;4.40;1.00;;;;;;5147586;27;20878;-58
2022/01/26 13:35:41;;;;;;;20.17;10.17;;;4.20;1.00;;;;;;5149953;27;20449;-57
2022/01/26 13:38:26;;;;;;;15.03;9.23;;;4.20;1.00;;;;;;5149515;27;20413;-57
2022/01/26 13:41:25;;;;;;;14.20;9.17;;;4.10;1.00;;;;;;5129967;27;20498;-59
2022/01/26 13:51:59;;;;;;;12.70;9.17;;;2.90;1.00;;;;;;5147802;27;20426;-59
2022/01/26 13:54:52;;;;;;;17.30;8.90;;;4.00;1.00;;;;;;5147242;27;20184;-58
2022/01/26 14:00:06;;;;;;;9.70;7.33;;;3.90;1.00;;;;;;5132886;27;21004;-58
2022/01/26 14:02:33;;;;;;;11.60;7.30;;;3.70;1.00;;;;;;5133861;27;20431;-59
2022/01/26 14:04:58;;;;;;;11.73;7.00;;;3.80;1.00;;;;;;5133568;27;20527;-57
2022/01/26 14:07:24;;;;;;;12.50;8.10;;;3.80;1.00;;;;;;5133880;27;20431;-59
2022/01/26 14:09:50;;;;;;;12.03;6.93;;;3.80;1.00;;;;;;5115183;27;20177;-58
2022/01/26 14:12:24;;;;;;;9.90;6.17;;;3.80;1.00;;;;;;5134007;27;20545;-58
2022/01/26 14:14:54;;;;;;;9.07;6.03;;;;;;;;;;5134562;27;20250;-59
2022/01/26 14:17:29;;;;;;;9.43;6.07;;;4.00;1.00;;;;;;5133537;27;20445;-59
2022/01/26 14:20:09;;;;;;;12.90;7.30;;;3.90;1.00;;;;;;5133537;27;20844;-59
2022/01/26 14:22:49;;;;;;;11.70;6.97;;;4.00;1.00;;;;;;5130656;27;20757;-59
2022/01/26 14:25:29;;;;;;;10.07;6.77;;;4.10;1.00;;;;;;5135285;27;20465;-59
2022/01/26 14:27:59;;;;;;;7.17;5.83;;;4.10;1.00;;;;;;5132957;27;20487;-58
2022/01/26 14:51:44;;;;;;;10.57;7.60;;;3.90;1.00;;;;;;5132670;27;20429;-58
2022/01/26 15:40:34;;;;;;;22.23;12.10;;;3.50;1.00;;;;;;5131481;27;20427;-58
2022/01/26 15:49:04;;;;;;;25.90;12.83;;;3.50;1.00;;;;;;5131483;27;20986;-58
2022/01/26 16:07:43;;;;;;;18.30;11.37;;;;;;;;;;5130442;27;20780;-57
2022/01/26 16:20:50;;;;;;;19.60;10.03;;;;;;;;;;5129668;27;20443;-57
2022/01/26 16:26:25;;;;;;;14.23;8.70;;;2.90;1.00;;;;;;5126901;27;20434;-57
2022/01/26 16:53:43;;;;;;;7.50;5.10;;;3.00;1.00;;;;;;5129427;28;20756;-56
2022/01/26 17:21:04;;;;;;;19.13;9.97;;;;;;;;;;5123644;28;20482;-58
2022/01/26 17:27:16;;;;;;;21.37;12.47;;;3.20;1.00;;;;;;5129219;28;20502;-59
2022/01/26 18:04:53;;;;;;;27.33;15.67;;;3.40;1.00;;;;;;5133598;27;20855;-59
2022/01/26 18:13:02;;;;;;;29.03;16.53;;;3.30;1.00;;;;;;5133413;27;20930;-59
2022/01/26 18:13:15;;;;;;;31.87;17.17;;;3.20;1.00;;;;;;5133958;27;20486;-59
2022/01/26 18:15:55;;;;;;;27.00;16.07;;;3.20;1.00;;;;;;5115089;27;20478;-59
2022/01/26 18:31:54;;;;;;;31.97;17.70;;;3.40;1.00;;;;;;5133113;27;20463;-59
2022/01/26 18:50:35;;;;;;;30.13;17.67;;;3.50;1.00;;;;;;5133234;27;20445;-59
2022/01/26 18:53:01;;;;;;;36.53;18.70;;;3.50;1.00;;;;;;5133207;27;20431;-59
2022/01/26 18:55:26;;;;;;;31.27;17.90;;;3.50;1.00;;;;;;5132952;27;20185;-58
2022/01/26 18:57:52;;;;;;;31.33;16.60;;;3.50;1.00;;;;;;5114271;27;20186;-58
2022/01/26 19:00:18;;;;;;;33.00;17.23;;;3.50;1.00;;;;;;5134446;27;20176;-59
2022/01/26 19:02:43;;;;;;;25.57;14.77;;;3.40;1.00;;;;;;5132403;27;20189;-59
2022/01/26 19:05:11;;;;;;;31.27;17.90;;;3.40;1.00;;;;;;5132727;27;20270;-58
2022/01/26 19:07:36;;;;;;;31.73;17.50;;;3.40;1.00;;;;;;5132804;27;20522;-60
2022/01/26 19:10:03;;;;;;;34.70;18.33;;;3.50;1.00;;;;;;5132665;27;20438;-58
2022/01/26 19:12:33;;;;;;;28.70;16.50;;;;;;;;;;5132637;27;20242;-59
2022/01/26 19:15:03;;;;;;;35.63;17.50;;;3.40;1.00;;;;;;5113696;27;20446;-58
2022/01/26 19:17:35;;;;;;;36.00;17.73;;;3.50;1.00;;;;;;5132534;27;20454;-58
2022/01/26 19:20:26;;;;;;;32.97;17.33;;;3.50;1.00;;;;;;5132379;27;20439;-59
2022/01/26 19:23:05;;;;;;;37.60;18.00;;;3.50;1.00;;;;;;5130414;27;20492;-59
2022/01/26 19:25:46;;;;;;;32.37;17.53;;;;;;;;;;5132217;27;20491;-58
2022/01/26 19:28:18;;;;;;;32.20;16.40;;;7.20;1.00;;;;;;5131212;27;20492;-59
2022/01/26 19:44:22;;;;;;;30.37;17.60;;;3.30;1.00;;;;;;5137689;27;20543;-58
2022/01/26 19:52:08;;;;;;;37.83;18.43;;;3.40;1.00;;;;;;5132060;27;20450;-59
2022/01/26 19:54:35;;;;;;;32.80;18.87;;;3.40;1.00;;;;;;5131553;27;20481;-59
2022/01/26 19:57:03;;;;;;;36.23;18.13;;;3.50;1.00;;;;;;5128881;27;20521;-59
2022/01/26 19:59:29;;;;;;;32.93;18.43;;;3.50;1.00;;;;;;5131827;27;20471;-58
2022/01/26 20:01:55;;;;;;;41.23;19.87;;;3.50;1.00;;;;;;5132104;27;20437;-59
2022/01/26 20:04:21;;;;;;;34.27;18.07;;;3.50;1.00;;;;;;5131703;27;20494;-59
2022/01/26 20:06:47;;;;;;;30.33;16.83;;;;;;;;;;5133661;27;20185;-59
2022/01/26 20:09:30;;;;;;;32.10;16.77;;;3.60;1.00;;;;;;5131467;27;20431;-59
2022/01/26 20:11:59;;;;;;;33.30;17.40;;;3.60;1.00;;;;;;5131341;27;20475;-59
2022/01/26 20:14:32;;;;;;;31.37;18.07;;;3.70;1.00;;;;;;5130862;27;20420;-59
2022/01/26 20:17:06;;;;;;;37.80;19.53;;;3.70;1.00;;;;;;5113963;27;20850;-59
2022/01/26 20:19:33;;;;;;;37.63;20.07;;;3.60;1.00;;;;;;5112193;27;20427;-59
2022/01/26 20:21:58;;;;;;;29.70;16.30;;;3.60;1.00;;;;;;5130954;27;20434;-60
2022/01/26 20:24:24;;;;;;;34.23;18.30;;;3.70;1.00;;;;;;5130828;27;20474;-60
2022/01/26 20:26:52;;;;;;;32.53;17.23;;;3.60;1.00;;;;;;5130949;27;20217;-59
2022/01/26 20:29:21;;;;;;;35.10;17.47;;;3.60;1.00;;;;;;5130919;27;20177;-59
2022/01/26 20:31:47;;;;;;;30.33;15.83;;;3.60;1.00;;;;;;5131272;27;20572;-59
2022/01/26 20:34:14;;;;;;;33.37;15.27;;;3.60;1.00;;;;;;5130808;27;21005;-59
2022/01/26 20:36:40;;;;;;;36.33;17.47;;;;;;;;;;5131248;27;20169;-59
2022/01/26 20:39:06;;;;;;;29.57;15.67;;;3.70;1.00;;;;;;5130923;27;21048;-59
2022/01/26 20:41:31;;;;;;;29.27;16.63;;;3.80;1.00;;;;;;5133232;27;20442;-59
2022/01/26 20:43:57;;;;;;;36.27;17.83;;;3.80;1.00;;;;;;5112097;28;20904;-59
2022/01/26 20:46:23;;;;;;;33.60;16.87;;;3.70;1.00;;;;;;5131191;27;20220;-59
2022/01/26 20:48:48;;;;;;;33.50;17.60;;;3.70;1.00;;;;;;5130928;28;20193;-59
2022/01/26 20:51:14;;;;;;;29.10;16.30;;;3.80;1.00;;;;;;5131133;28;20192;-58
2022/01/26 20:53:41;;;;;;;33.20;17.27;;;3.80;1.00;;;;;;5130622;28;20209;-59
2022/01/26 20:56:08;;;;;;;34.80;17.53;;;3.80;1.00;;;;;;5130766;28;20442;-59
2022/01/26 20:58:33;;;;;;;38.37;19.53;;;3.80;1.00;;;;;;5130757;28;21214;-59
2022/01/26 21:00:59;;;;;;;30.30;16.50;;;3.90;1.00;;;;;;5131346;27;20450;-59
2022/01/26 21:03:25;;;;;;;30.17;17.70;;;3.90;1.00;;;;;;5130810;28;20208;-58